METAR ET TAF INFORMATION
METAR FOR LFPO
ADDS - METARS form results

(0115 UTC 19 August 2019)
Data provider http://aviationweather.gov/metar/data/
 
METAR text: LFPO 190100Z 25004KT CAVOK 15/12 Q1016 NOSIG
Conditions at: LFPO (PARIS/ORLY , FR) observed 0100 UTC 19 August 2019
Temperature: 15.0°C (59°F)
Dewpoint: 12.0°C (54°F) [RH = 82%]
Pressure (altimeter): 30.00 inches Hg (1016.0 mb)
Winds: from the WSW (250 degrees) at 5 MPH (4 knots; 2.1 m/s)
Visibility: 6 or more miles (10+ km)
Ceiling: ceiling and visibility are OK
Clouds: unknown
Weather: no significant weather observed at this time

METAR text: LFPO 190030Z 23003KT CAVOK 14/11 Q1015 NOSIG
Conditions at: LFPO (PARIS/ORLY , FR) observed 0030 UTC 19 August 2019
Temperature: 14.0°C (57°F)
Dewpoint: 11.0°C (52°F) [RH = 82%]
Pressure (altimeter): 29.97 inches Hg (1015.0 mb)
Winds: from the SW (230 degrees) at 3 MPH (3 knots; 1.5 m/s)
Visibility: 6 or more miles (10+ km)
Ceiling: ceiling and visibility are OK
Clouds: unknown
Weather: no significant weather observed at this time

Forecast for: LFPO (PARIS/ORLY , FR)
Text: TAF LFPO 182300Z 1900/2006 26005KT CAVOK
Forecast period: 0000 UTC 19 August 2019 to 0600 UTC 20 August 2019
Forecast type: FROM: standard forecast or significant change
Winds: from the W (260 degrees) at 6 MPH (5 knots; 2.6 m/s)
Visibility: 6 or more miles 10+ km)
Ceiling: unknown
Clouds: missing
Weather: NSW  (no significant weather)

 AÉROPORT DE AÉROPORT

 INFORMATIONS DE PISTE
Piste 02 Longueur de la piste 7874 ft Largeur de la piste 197 ft
Élévation de la piste 287 ft Seuil de la piste déplacés 0 ft Runway heading 18
Piste 20 Longueur de la piste 7874 ft Largeur de la piste 197 ft
Élévation de la piste 287 ft Seuil de la piste déplacés 0 ft Runway heading 198
Piste 06 Longueur de la piste 11975 ft Largeur de la piste 148 ft
Élévation de la piste 283 ft Seuil de la piste déplacés 984 ft Runway heading 62
Piste 24 Longueur de la piste 11975 ft Largeur de la piste 148 ft
Élévation de la piste 284 ft Seuil de la piste déplacés 0 ft Runway heading 242
Piste 08 Longueur de la piste 10892 ft Largeur de la piste 148 ft
Élévation de la piste 277 ft Seuil de la piste déplacés 0 ft Runway heading 74
Piste 26 Longueur de la piste 10892 ft Largeur de la piste 148 ft
Élévation de la piste 287 ft Seuil de la piste déplacés 1427 ft Runway heading 254

 AÉROPORT FRÉQUENCES
Type APP Nom APP Féquence 123.875 MHZ
Type ATIS Nom ATIS Féquence 131.35 MHZ
Type DEP Nom DEP Féquence 127.75 MHZ
Type GND Nom GND Féquence 121.7 MHZ
Type PFLT Nom PREFLIGHT Féquence 121.05 MHZ
Type TWR Nom TWR Féquence 118.7 MHZ

 SIDA DE NAVIGATION
Type VOR-DME Nom Orly Féquence 111200 KHZ



Powered by Virtual Airlines Manager [v2.6.2]